Time;durP1;ratioP1;P1;durP2;ratioP2;P2;SDS_P1;SDS_P2;PMS_P1;PMS_P2;Temp;Humidity;BMP_temperature;BMP_pressure;BME280_temperature;BME280_humidity;BME280_pressure;Samples;Min_cycle;Max_cycle;Signal;HPM_P1;HPM_P2
2023/03/20 00:00:42;;;;;;;115.93;66.60;;;;;;;19.38;72.34;98345.66;4901184;29;20080;-61
2023/03/20 00:03:31;;;;;;;115.55;66.30;;;;;;;19.37;72.47;98342.16;4961868;28;20150;-60
2023/03/20 00:06:22;;;;;;;119.28;68.43;;;;;;;19.37;72.49;98352.09;4963307;28;20085;-59
2023/03/20 00:09:12;;;;;;;109.70;64.75;;;;;;;19.37;72.63;98347.53;4962691;28;20142;-60
2023/03/20 00:11:59;;;;;;;118.22;68.22;;;;;;;19.37;72.56;98344.84;4964733;28;20051;-61
2023/03/20 00:14:48;;;;;;;113.30;65.43;;;;;;;19.37;72.60;98344.84;4965504;28;20161;-59
2023/03/20 00:17:30;;;;;;;108.55;65.63;;;;;;;19.34;72.68;98337.28;4961974;28;20054;-59
2023/03/20 00:20:19;;;;;;;108.07;65.30;;;;;;;19.32;72.72;98338.63;4965016;28;20480;-59
2023/03/20 00:23:03;;;;;;;107.25;64.45;;;;;;;19.33;72.61;98348.31;4957007;28;20050;-59
2023/03/20 00:25:52;;;;;;;109.60;66.00;;;;;;;19.32;72.93;98342.13;4945958;29;20047;-59
2023/03/20 00:28:50;;;;;;;108.70;65.95;;;;;;;19.30;72.86;98350.44;4946153;29;20055;-59
2023/03/20 00:31:46;;;;;;;114.40;69.47;;;;;;;19.29;73.03;98353.41;4946027;29;20074;-61
2023/03/20 00:34:25;;;;;;;123.40;73.82;;;;;;;19.29;73.22;98345.34;4937784;29;20534;-60
2023/03/20 00:37:21;;;;;;;124.07;76.53;;;;;;;19.29;73.40;98350.72;4929944;28;20052;-59
2023/03/20 00:39:57;;;;;;;130.70;78.82;;;;;;;19.30;73.03;98346.94;4940174;29;20051;-60
2023/03/20 00:42:52;;;;;;;129.18;75.88;;;;;;;19.27;73.24;98345.59;4948059;29;20051;-60
2023/03/20 00:45:37;;;;;;;131.65;76.88;;;;;;;19.27;73.33;98348.28;4947443;29;20467;-59
2023/03/20 00:48:26;;;;;;;126.03;75.78;;;;;;;19.26;73.27;98352.00;4947272;29;20153;-61
2023/03/20 00:51:08;;;;;;;139.88;82.40;;;;;;;19.28;73.46;98357.94;4932003;28;20073;-59
2023/03/20 00:53:58;;;;;;;127.18;78.22;;;;;;;19.23;73.34;98357.91;4919627;29;20051;-59
2023/03/20 00:56:46;;;;;;;129.02;79.07;;;;;;;19.17;73.66;98360.78;4920956;29;20071;-61
2023/03/20 01:00:03;;;;;;;128.15;79.30;;;;;;;19.14;74.01;98358.63;4920603;29;20467;-58
2023/03/20 01:02:39;;;;;;;128.27;79.70;;;;;;;19.11;74.37;98368.00;4923367;29;20055;-61
2023/03/20 01:05:31;;;;;;;133.38;81.75;;;;;;;19.13;74.06;98367.75;4933957;29;20075;-60
2023/03/20 01:08:31;;;;;;;141.20;81.88;;;;;;;19.15;74.06;98374.50;4928004;29;20727;-59
2023/03/20 01:11:14;;;;;;;130.15;79.60;;;;;;;19.15;74.17;98371.81;4910974;29;20059;-58
2023/03/20 01:14:03;;;;;;;133.20;81.72;;;;;;;19.16;74.21;98364.56;4917020;29;20054;-58
2023/03/20 01:16:45;;;;;;;132.48;81.32;;;;;;;19.16;74.34;98380.69;4911597;29;20055;-61
2023/03/20 01:19:35;;;;;;;130.25;82.70;;;;;;;19.18;74.30;98365.09;4929337;29;20498;-61
2023/03/20 01:22:19;;;;;;;137.15;83.95;;;;;;;19.17;74.02;98369.66;4909813;29;20086;-60
2023/03/20 01:25:08;;;;;;;137.63;87.78;;;;;;;19.19;74.13;98372.91;4916154;29;20143;-59
2023/03/20 01:27:52;;;;;;;140.02;85.70;;;;;;;19.19;74.09;98382.84;4926018;29;20492;-60
2023/03/20 01:30:41;;;;;;;138.85;85.50;;;;;;;19.19;74.26;98386.34;4919474;29;20055;-60
2023/03/20 01:33:25;;;;;;;141.57;89.68;;;;;;;19.20;74.20;98387.16;4914758;29;20056;-60
2023/03/20 01:36:19;;;;;;;144.00;90.70;;;;;;;19.19;74.31;98389.03;4907729;29;20052;-58
2023/03/20 01:39:10;;;;;;;143.85;88.75;;;;;;;19.22;74.28;98385.81;4915484;29;20051;-60
2023/03/20 01:42:00;;;;;;;140.32;89.00;;;;;;;19.22;74.29;98396.56;4902368;29;20062;-60
2023/03/20 01:44:42;;;;;;;145.52;89.10;;;;;;;19.27;74.30;98399.28;4916837;29;20158;-59
2023/03/20 01:47:32;;;;;;;145.20;91.38;;;;;;;19.33;74.45;98402.03;4916310;29;20539;-59
2023/03/20 01:50:25;;;;;;;145.43;93.70;;;;;;;19.34;74.52;98406.34;4917356;29;20103;-58
2023/03/20 01:53:36;;;;;;;150.73;90.75;;;;;;;19.36;74.31;98405.00;4929711;29;20058;-59
2023/03/20 01:56:31;;;;;;;137.07;89.75;;;;;;;19.40;74.25;98406.09;4940405;28;20056;-58
2023/03/20 01:59:26;;;;;;;145.48;90.97;;;;;;;19.45;74.07;98414.25;4906148;29;20070;-59
2023/03/20 02:02:24;;;;;;;139.38;84.75;;;;;;;19.48;74.27;98424.47;4913485;29;20057;-58
2023/03/20 02:05:11;;;;;;;142.43;88.90;;;;;;;19.51;74.09;98436.59;4943634;29;20618;-58
2023/03/20 02:08:34;;;;;;;147.97;89.93;;;;;;;19.52;74.29;98436.31;4930760;28;20059;-60
2023/03/20 02:11:31;;;;;;;146.90;88.90;;;;;;;19.53;74.31;98437.13;4941319;29;20375;-63
2023/03/20 02:14:09;;;;;;;146.68;92.68;;;;;;;19.59;74.42;98444.16;4926139;29;20786;-58
2023/03/20 02:17:13;;;;;;;155.18;96.50;;;;;;;19.60;74.38;98443.91;4925261;29;20440;-59
2023/03/20 02:20:27;;;;;;;157.73;95.72;;;;;;;19.64;74.27;98447.72;4929616;29;20051;-59
2023/03/20 02:23:49;;;;;;;169.02;102.30;;;;;;;19.66;74.56;98445.56;4937858;28;20655;-58
2023/03/20 02:27:06;;;;;;;158.77;99.78;;;;;;;19.79;74.20;98454.25;4893612;29;20060;-58
2023/03/20 02:30:23;;;;;;;169.90;104.65;;;;;;;19.92;74.03;98451.94;4915230;29;20051;-59
2023/03/20 02:33:19;;;;;;;165.40;105.93;;;;;;;20.15;73.17;98453.41;4929209;29;20058;-56
2023/03/20 02:36:31;;;;;;;171.85;108.78;;;;;;;20.31;72.26;98457.06;4934164;28;20519;-59
2023/03/20 02:39:25;;;;;;;169.85;111.57;;;;;;;20.54;71.52;98470.06;4948614;28;20058;-58
2023/03/20 02:42:46;;;;;;;179.00;114.78;;;;;;;20.68;70.53;98465.00;4930003;29;20151;-59
2023/03/20 02:45:45;;;;;;;181.50;117.35;;;;;;;20.70;70.14;98468.25;4911724;29;20055;-58
2023/03/20 02:48:48;;;;;;;184.93;115.70;;;;;;;20.74;69.44;98475.53;4900938;29;20047;-57
2023/03/20 02:51:55;;;;;;;185.98;119.47;;;;;;;20.86;68.81;98476.13;4936646;28;20089;-58
2023/03/20 02:54:53;;;;;;;187.45;119.85;;;;;;;21.09;68.38;98477.53;4945463;29;20051;-60
2023/03/20 02:57:45;;;;;;;187.45;119.30;;;;;;;21.43;67.63;98483.28;4936318;29;20043;-58
2023/03/20 03:00:35;;;;;;;193.57;121.07;;;;;;;21.63;66.23;98487.88;4945364;29;20059;-60
2023/03/20 03:03:33;;;;;;;191.70;122.30;;;;;;;21.64;66.01;98476.81;4931129;29;20146;-59
2023/03/20 03:06:31;;;;;;;175.73;114.93;;;;;;;21.62;65.96;98478.97;4947016;29;20062;-58
2023/03/20 03:09:35;;;;;;;184.98;109.03;;;;;;;21.67;65.64;98480.88;4931232;29;20134;-60
2023/03/20 03:12:26;;;;;;;172.90;109.80;;;;;;;21.68;65.25;98482.50;4943743;29;20633;-59
2023/03/20 03:15:33;;;;;;;169.38;103.35;;;;;;;21.70;65.23;98486.53;4942360;29;20058;-58
2023/03/20 03:18:23;;;;;;;137.88;84.20;;;;;;;21.75;64.90;98494.63;4944918;28;21001;-58
2023/03/20 03:21:14;;;;;;;122.97;78.70;;;;;;;21.86;64.69;98498.13;4947845;28;20153;-58
2023/03/20 03:23:56;;;;;;;118.00;74.53;;;;;;;21.98;64.37;98497.88;4917616;29;20052;-60
2023/03/20 03:26:47;;;;;;;111.93;70.40;;;;;;;22.14;63.12;98499.47;4938169;29;20050;-58
2023/03/20 03:29:36;;;;;;;117.45;71.78;;;;;;;22.21;62.75;98498.13;4931435;29;20055;-58
2023/03/20 03:32:33;;;;;;;111.03;68.28;;;;;;;22.30;62.82;98498.38;4938123;29;20503;-59
2023/03/20 03:35:19;;;;;;;106.90;69.03;;;;;;;22.33;62.71;98497.81;4949134;28;20047;-59
2023/03/20 03:38:34;;;;;;;115.90;73.38;;;;;;;22.40;62.49;98498.34;4951364;28;20818;-60
2023/03/20 03:41:38;;;;;;;119.97;75.18;;;;;;;22.52;62.53;98506.97;4913354;29;20048;-60
2023/03/20 03:44:24;;;;;;;129.48;75.90;;;;;;;22.61;61.90;98508.00;4928870;29;20054;-59
2023/03/20 03:47:22;;;;;;;102.05;67.63;;;;;;;;;;4929159;29;20051;-57
2023/03/20 03:50:06;;;;;;;101.68;65.43;;;;;;;22.71;60.77;98517.97;4932413;29;20055;-58
2023/03/20 03:53:05;;;;;;;102.60;62.63;;;;;;;22.78;60.87;98522.03;4916806;28;20043;-59
2023/03/20 03:55:50;;;;;;;94.40;60.20;;;;;;;22.93;60.78;98521.13;4933371;29;20063;-59
2023/03/20 03:58:47;;;;;;;84.07;54.13;;;;;;;23.00;60.44;98520.84;4905919;29;20047;-59
2023/03/20 04:02:28;;;;;;;67.68;45.28;;;;;;;23.08;59.73;98526.47;4909405;29;20067;-59
2023/03/20 04:05:12;;;;;;;69.40;44.67;;;;;;;23.22;59.31;98523.97;4905075;29;20083;-60
2023/03/20 04:08:06;;;;;;;68.78;44.63;;;;;;;23.33;59.56;98524.72;4928459;29;20301;-58
2023/03/20 04:10:48;;;;;;;65.35;43.80;;;;;;;23.33;59.22;98522.81;4937283;29;20119;-59
2023/03/20 04:13:37;;;;;;;66.75;42.30;;;;;;;23.37;59.07;98518.47;4909415;29;20087;-59
2023/03/20 04:16:33;;;;;;;69.95;44.00;;;;;;;23.45;59.13;98533.34;4936090;29;20531;-58
2023/03/20 04:19:09;;;;;;;69.55;44.67;;;;;;;23.46;59.18;98529.53;4915874;29;20130;-57
2023/03/20 04:22:04;;;;;;;69.25;43.67;;;;;;;23.41;59.78;98540.38;4914654;29;20051;-58
2023/03/20 04:24:40;;;;;;;69.63;42.15;;;;;;;23.29;59.86;98540.69;4928116;29;20063;-59
2023/03/20 04:27:37;;;;;;;59.42;39.42;;;;;;;23.26;60.08;98531.25;4911775;29;20500;-58
2023/03/20 04:30:22;;;;;;;64.07;38.97;;;;;;;23.33;59.92;98530.94;4914817;29;20055;-58
2023/03/20 04:33:29;;;;;;;67.35;41.03;;;;;;;23.51;59.60;98541.13;4933144;29;20067;-58
2023/03/20 04:36:30;;;;;;;59.97;38.92;;;;;;;23.70;59.07;98539.38;4931390;29;20065;-59
2023/03/20 04:39:21;;;;;;;54.05;37.25;;;;;;;23.79;59.20;98526.06;4934802;29;20048;-58
2023/03/20 04:42:03;;;;;;;60.47;36.83;;;;;;;23.91;59.01;98523.78;4946869;29;20047;-59
2023/03/20 04:44:59;;;;;;;51.30;34.80;;;;;;;24.24;58.34;98524.91;4918437;29;20563;-59
2023/03/20 04:47:37;;;;;;;50.45;36.17;;;;;;;24.81;52.49;98524.00;4944324;29;20061;-58
2023/03/20 04:50:34;;;;;;;56.80;36.42;;;;;;;24.74;51.48;98525.47;4924204;29;20063;-58
2023/03/20 04:53:24;;;;;;;49.85;34.33;;;;;;;25.11;54.46;98524.75;4939080;28;20068;-59
2023/03/20 04:56:20;;;;;;;50.95;34.67;;;;;;;25.40;53.87;98515.38;4935492;29;20133;-57
2023/03/20 04:59:09;;;;;;;55.10;33.22;;;;;;;25.29;54.35;98515.84;4930273;29;20134;-59
2023/03/20 05:02:04;;;;;;;45.25;31.45;;;;;;;25.59;52.37;98511.88;4930266;29;20046;-59
2023/03/20 05:04:42;;;;;;;46.42;31.33;;;;;;;25.49;52.94;98508.19;4946269;28;20921;-60
2023/03/20 05:07:31;;;;;;;43.40;30.90;;;;;;;25.76;52.39;98515.69;4940467;28;20046;-60
2023/03/20 05:10:17;;;;;;;40.22;29.05;;;;;;;25.68;52.91;98513.66;4937633;28;20098;-59
2023/03/20 05:13:13;;;;;;;44.20;31.50;;;;;;;25.70;52.87;98514.19;4954149;28;20483;-61
2023/03/20 05:16:08;;;;;;;51.58;33.40;;;;;;;25.54;53.83;98515.47;4932185;28;20154;-59
2023/03/20 05:19:16;;;;;;;54.75;34.90;;;;;;;25.37;53.36;98507.03;4951962;28;20061;-60
2023/03/20 05:22:13;;;;;;;60.20;37.45;;;;;;;25.64;52.82;98512.63;4953602;28;20498;-58
2023/03/20 05:25:17;;;;;;;56.03;39.53;;;;;;;25.90;52.78;98516.53;4936780;28;20047;-59
2023/03/20 05:28:15;;;;;;;51.63;36.17;;;;;;;25.93;52.74;98520.59;4939765;28;20144;-60
2023/03/20 05:31:37;;;;;;;70.88;37.63;;;;;;;25.90;53.18;98519.25;4942601;28;20046;-63
2023/03/20 05:34:45;;;;;;;62.55;38.25;;;;;;;25.98;52.54;98525.91;4945000;28;20142;-60
2023/03/20 05:37:54;;;;;;;63.17;39.60;;;;;;;25.73;52.19;98519.00;4897628;29;20044;-61
2023/03/20 05:41:07;;;;;;;70.10;39.90;;;;;;;25.67;54.04;98519.38;4926922;29;20475;-59
2023/03/20 05:44:25;;;;;;;63.28;40.33;;;;;;;25.68;55.16;98513.66;4944783;28;20061;-60
2023/03/20 05:47:25;;;;;;;65.07;39.55;;;;;;;25.77;54.50;98511.06;4938829;28;20057;-60
2023/03/20 05:50:31;;;;;;;49.60;34.47;;;;;;;25.87;50.46;98517.16;4947144;28;20051;-59
2023/03/20 05:53:19;;;;;;;47.10;34.83;;;;;;;25.60;53.05;98522.47;4944737;28;20058;-59
2023/03/20 05:56:28;;;;;;;51.13;35.17;;;;;;;25.83;54.07;98531.59;4937563;29;20051;-59
2023/03/20 05:59:22;;;;;;;48.55;35.08;;;;;;;25.87;54.53;98527.19;4929259;29;20782;-58
2023/03/20 06:02:31;;;;;;;50.17;34.17;;;;;;;25.88;53.80;98526.09;4945379;28;20051;-59
2023/03/20 06:05:43;;;;;;;45.63;33.63;;;;;;;25.70;50.47;98533.16;4944792;28;20043;-60
2023/03/20 06:08:25;;;;;;;47.23;33.27;;;;;;;25.59;52.79;98523.56;4950906;28;20160;-58
2023/03/20 06:11:16;;;;;;;43.55;31.60;;;;;;;25.41;52.96;98518.91;4926537;29;20162;-58
2023/03/20 06:13:59;;;;;;;50.78;31.48;;;;;;;25.19;52.90;98519.47;4944660;28;20078;-58
2023/03/20 06:16:52;;;;;;;46.42;32.45;;;;;;;25.15;54.39;98517.66;4926937;28;20055;-58
2023/03/20 06:19:37;;;;;;;48.95;33.28;;;;;;;24.85;53.75;98510.69;4915544;29;20134;-57
2023/03/20 06:22:26;;;;;;;40.63;31.65;;;;;;;24.76;54.54;98507.00;4928269;29;20400;-60
2023/03/20 06:25:08;;;;;;;47.13;32.78;;;;;;;24.36;57.16;98508.25;4945068;29;20051;-59
2023/03/20 06:27:58;;;;;;;46.85;29.88;;;;;;;24.28;55.24;98501.56;4927774;29;20044;-60
2023/03/20 06:30:56;;;;;;;40.95;30.05;;;;;;;24.31;57.92;98483.94;4943233;29;20059;-60
2023/03/20 06:33:31;;;;;;;44.85;31.05;;;;;;;24.27;58.70;98475.59;4925926;29;20071;-60
2023/03/20 06:36:21;;;;;;;43.80;28.65;;;;;;;24.22;57.92;98472.94;4933827;29;20047;-59
2023/03/20 06:39:10;;;;;;;48.03;30.85;;;;;;;24.11;57.66;98472.22;4936150;29;20062;-59
2023/03/20 06:42:06;;;;;;;43.22;28.65;;;;;;;24.03;58.61;98470.13;4919203;29;20176;-58
2023/03/20 06:44:42;;;;;;;45.33;30.48;;;;;;;24.04;58.41;98474.44;4926668;29;20067;-58
2023/03/20 06:48:01;;;;;;;37.35;26.92;;;;;;;23.84;58.04;98466.53;4927988;28;20051;-57
2023/03/20 06:50:44;;;;;;;43.40;27.15;;;;;;;23.54;60.36;98467.59;4930193;29;20333;-57
2023/03/20 06:53:47;;;;;;;55.67;29.27;;;;;;;22.86;63.79;98472.03;4913007;29;20090;-59
2023/03/20 06:56:26;;;;;;;53.22;27.50;;;;;;;22.68;64.97;98467.22;4912241;29;20528;-58
2023/03/20 06:59:22;;;;;;;44.35;25.90;;;;;;;22.56;66.20;98470.22;4919209;29;20056;-59
2023/03/20 07:01:57;;;;;;;40.35;25.83;;;;;;;22.54;67.95;98477.78;4915231;29;20051;-59
2023/03/20 07:04:53;;;;;;;42.42;26.98;;;;;;;22.03;67.95;98479.00;4903373;29;20055;-58
2023/03/20 07:07:29;;;;;;;38.25;26.00;;;;;;;22.10;70.35;98472.22;4904318;29;20059;-59
2023/03/20 07:10:25;;;;;;;37.17;24.97;;;;;;;22.28;69.63;98476.25;4914581;29;20062;-59
2023/03/20 07:13:01;;;;;;;34.65;23.55;;;;;;;22.30;69.63;98483.00;4917976;29;20860;-60
2023/03/20 07:16:00;;;;;;;38.30;24.15;;;;;;;22.28;69.70;98478.94;4928634;29;20538;-58
2023/03/20 07:18:40;;;;;;;43.38;26.58;;;;;;;22.16;71.51;98492.75;4926509;29;20218;-59
2023/03/20 07:21:39;;;;;;;37.72;24.60;;;;;;;22.07;71.57;98493.56;4927191;29;20051;-59
2023/03/20 07:24:17;;;;;;;42.80;23.10;;;;;;;21.94;71.70;98481.44;4923675;29;20050;-61
2023/03/20 07:27:06;;;;;;;46.75;25.02;;;;;;;21.74;74.63;98486.78;4918427;29;20055;-60
2023/03/20 07:29:49;;;;;;;38.10;23.15;;;;;;;21.38;75.25;98476.00;4935360;29;20051;-62
2023/03/20 07:32:45;;;;;;;39.55;23.52;;;;;;;20.98;76.93;98471.28;4913612;29;20054;-60
2023/03/20 07:35:23;;;;;;;35.25;21.02;;;;;;;20.63;78.65;98469.28;4937499;29;20106;-60
2023/03/20 07:38:21;;;;;;;37.67;22.05;;;;;;;20.44;78.92;98473.53;4934115;28;20107;-61
2023/03/20 07:41:09;;;;;;;32.05;21.33;;;;;;;20.62;79.30;98478.44;4928352;29;20122;-60
2023/03/20 07:44:09;;;;;;;32.47;19.90;;;;;;;20.57;79.07;98481.13;4915749;29;20136;-59
2023/03/20 07:46:58;;;;;;;34.63;21.65;;;;;;;20.85;79.25;98477.19;4908298;29;20788;-60
2023/03/20 07:49:53;;;;;;;34.40;21.33;;;;;;;20.84;78.43;98474.78;4922967;29;20492;-60
2023/03/20 07:52:43;;;;;;;30.65;22.48;;;;;;;20.93;78.38;98454.34;4927595;29;20047;-60
2023/03/20 07:55:38;;;;;;;28.52;20.80;;;;;;;20.80;78.21;98444.06;4922303;29;20494;-60
2023/03/20 07:58:13;;;;;;;27.08;20.92;;;;;;;20.96;78.54;98454.59;4949575;28;20767;-60
2023/03/20 08:01:10;;;;;;;34.42;21.05;;;;;;;20.88;79.04;98454.31;4928496;29;20055;-60
2023/03/20 08:03:46;;;;;;;30.88;22.55;;;;;;;20.91;80.71;98456.47;4929788;29;20606;-60
2023/03/20 08:06:42;;;;;;;32.30;22.90;;;;;;;20.90;79.84;98449.47;4941901;29;20638;-61
2023/03/20 08:09:18;;;;;;;29.70;21.95;;;;;;;20.91;79.57;98437.63;4948848;29;20051;-61
2023/03/20 08:12:15;;;;;;;29.45;22.80;;;;;;;21.03;78.50;98413.94;4930192;29;20064;-60
2023/03/20 08:14:51;;;;;;;32.72;23.55;;;;;;;20.88;78.32;98425.53;4935798;29;20047;-61
2023/03/20 08:17:44;;;;;;;28.90;22.88;;;;;;;20.79;77.43;98429.00;4950855;28;20828;-60
2023/03/20 08:20:33;;;;;;;28.17;22.20;;;;;;;20.83;77.87;98428.19;4954404;28;20416;-60
2023/03/20 08:23:22;;;;;;;31.70;23.95;;;;;;;20.87;77.21;98428.47;4956590;28;20667;-60
2023/03/20 08:26:11;;;;;;;37.50;23.10;;;;;;;20.88;78.18;98425.53;4957632;28;20114;-61
2023/03/20 08:29:07;;;;;;;32.45;22.83;;;;;;;21.04;77.91;98416.38;4957906;28;20082;-60
2023/03/20 08:31:42;;;;;;;33.63;24.25;;;;;;;21.20;77.01;98403.78;4956126;28;20554;-61
2023/03/20 08:34:38;;;;;;;34.60;24.08;;;;;;;21.32;76.31;98395.44;4954040;28;20054;-60
2023/03/20 08:37:16;;;;;;;32.97;23.33;;;;;;;21.57;74.96;98397.31;4948248;28;20137;-60
2023/03/20 08:40:12;;;;;;;31.50;25.30;;;;;;;21.45;74.80;98395.72;4948014;28;20081;-60
2023/03/20 08:42:47;;;;;;;39.25;27.20;;;;;;;21.67;75.12;98381.94;4942319;29;20438;-61
2023/03/20 08:45:37;;;;;;;38.53;25.55;;;;;;;21.64;73.45;98363.59;4942060;29;20106;-61
2023/03/20 08:48:26;;;;;;;37.50;24.20;;;;;;;21.78;73.22;98355.75;4929145;29;20079;-62
2023/03/20 08:51:15;;;;;;;31.27;23.13;;;;;;;22.02;73.08;98345.22;4947988;29;20666;-60
2023/03/20 08:54:11;;;;;;;30.15;22.08;;;;;;;22.29;71.96;98342.97;4950591;28;20130;-61
2023/03/20 08:56:46;;;;;;;29.00;21.55;;;;;;;22.27;70.20;98343.22;4966744;28;20051;-61
2023/03/20 08:59:35;;;;;;;32.95;22.90;;;;;;;22.11;67.37;98330.91;4963209;28;20074;-63
2023/03/20 09:02:18;;;;;;;33.15;22.90;;;;;;;22.42;69.07;98322.66;4962685;28;20042;-63
2023/03/20 09:05:14;;;;;;;28.77;21.35;;;;;;;22.33;67.19;98319.72;4962634;28;20090;-62
2023/03/20 09:07:50;;;;;;;27.40;20.90;;;;;;;22.55;67.97;98308.53;4958118;28;20531;-61
2023/03/20 09:10:40;;;;;;;25.20;20.35;;;;;;;22.48;66.44;98298.06;4950438;28;20054;-62
2023/03/20 09:13:22;;;;;;;25.55;20.70;;;;;;;22.49;66.60;98296.16;4956963;28;20051;-60
2023/03/20 09:16:11;;;;;;;28.02;21.23;;;;;;;22.62;66.96;98287.44;4949601;28;20055;-63
2023/03/20 09:18:55;;;;;;;27.30;20.67;;;;;;;22.72;66.18;98277.41;4946652;28;20061;-64
2023/03/20 09:21:45;;;;;;;29.17;20.70;;;;;;;22.99;66.72;98274.22;4962918;28;20129;-61
2023/03/20 09:24:28;;;;;;;28.20;19.70;;;;;;;22.94;65.69;98266.16;4947407;28;20058;-63
2023/03/20 09:27:24;;;;;;;25.25;19.55;;;;;;;22.92;64.35;98252.16;4963302;28;20061;-61
2023/03/20 09:29:59;;;;;;;30.08;20.55;;;;;;;23.02;65.70;98246.63;4964566;28;20046;-63
2023/03/20 09:32:56;;;;;;;26.95;21.02;;;;;;;23.28;66.90;98242.59;4962892;28;20074;-62
2023/03/20 09:35:32;;;;;;;25.25;19.35;;;;;;;23.33;64.66;98243.63;4954955;28;20051;-63
2023/03/20 09:38:23;;;;;;;28.58;19.23;;;;;;;23.33;65.12;98227.44;4946623;28;20091;-62
2023/03/20 09:41:19;;;;;;;26.20;18.10;;;;;;;23.27;65.01;98222.09;4947557;28;20383;-61
2023/03/20 09:44:19;;;;;;;24.27;17.55;;;;;;;23.35;63.53;98207.16;4953659;28;20054;-61
2023/03/20 09:47:20;;;;;;;28.73;17.10;;;;;;;23.26;62.78;98203.47;4938816;29;20052;-60
2023/03/20 09:50:31;;;;;;;23.33;17.30;;;;;;;23.38;63.12;98201.16;4952047;28;20055;-60
2023/03/20 09:53:29;;;;;;;22.35;16.08;;;;;;;23.36;61.22;98189.03;4952721;28;20062;-60
2023/03/20 09:56:24;;;;;;;19.75;15.43;;;;;;;23.59;60.51;98186.34;4928196;29;20051;-62
2023/03/20 09:59:04;;;;;;;21.08;16.85;;;;;;;23.79;61.61;98185.28;4928497;29;20487;-61
2023/03/20 10:01:57;;;;;;;19.15;16.25;;;;;;;23.72;60.86;98185.63;4929437;29;20051;-61
2023/03/20 10:04:41;;;;;;;18.98;15.55;;;;;;;23.70;60.08;98187.84;4926635;29;20071;-62
2023/03/20 10:07:31;;;;;;;22.52;15.15;;;;;;;23.81;60.73;98198.53;4925272;29;20062;-62
2023/03/20 10:10:14;;;;;;;20.23;15.50;;;;;;;23.91;59.24;98201.06;4926881;29;20060;-59
2023/03/20 10:13:19;;;;;;;21.50;14.68;;;;;;;23.89;59.62;98204.09;4928438;29;20102;-60
2023/03/20 10:16:56;;;;;;;24.77;14.68;;;;;;;23.97;61.18;98222.38;4927754;29;20095;-60
2023/03/20 10:19:55;;;;;;;15.70;12.80;;;;;;;23.69;58.43;98221.38;4926632;29;20440;-61
2023/03/20 10:23:01;;;;;;;17.05;13.55;;;;;;;23.77;61.70;98205.59;4925363;29;20063;-60
2023/03/20 10:25:42;;;;;;;23.02;14.02;;;;;;;23.68;59.41;98191.91;4931054;29;20051;-59
2023/03/20 10:28:54;;;;;;;15.82;12.85;;;;;;;23.67;60.67;98172.19;4928520;29;20066;-59
2023/03/20 10:32:03;;;;;;;16.35;13.25;;;;;;;23.49;58.43;98169.44;4892078;29;20135;-60
2023/03/20 10:35:33;;;;;;;17.85;12.82;;;;;;;23.45;60.21;98168.41;4917263;29;20070;-59
2023/03/20 10:38:32;;;;;;;21.05;12.80;;;;;;;23.36;60.46;98170.94;4921813;29;20048;-60
2023/03/20 10:41:25;;;;;;;17.05;13.45;;;;;;;23.25;60.16;98156.72;4927135;29;20051;-60
2023/03/20 10:44:39;;;;;;;15.90;12.90;;;;;;;23.22;58.44;98162.69;4930907;29;20047;-61
2023/03/20 10:47:27;;;;;;;17.02;12.55;;;;;;;23.21;58.07;98158.38;4937784;29;20289;-61
2023/03/20 10:50:35;;;;;;;13.95;11.90;;;;;;;23.18;59.47;98158.16;4924683;29;20080;-61
2023/03/20 10:53:53;;;;;;;14.52;11.40;;;;;;;23.10;59.38;98156.88;4922158;29;20040;-61
2023/03/20 10:56:46;;;;;;;17.02;12.60;;;;;;;23.11;57.64;98155.78;4942470;29;20055;-60
2023/03/20 10:59:42;;;;;;;14.95;12.05;;;;;;;23.09;57.08;98157.97;4945581;28;20063;-61
2023/03/20 11:02:38;;;;;;;13.93;11.77;;;;;;;23.04;58.15;98144.53;4940693;29;20079;-61
2023/03/20 11:05:40;;;;;;;15.98;12.77;;;;;;;22.98;59.34;98144.84;4937798;29;20059;-60
2023/03/20 11:08:20;;;;;;;16.08;13.43;;;;;;;22.80;57.72;98146.38;4947707;28;20063;-64
2023/03/20 11:11:10;;;;;;;17.63;12.73;;;;;;;22.78;58.35;98146.69;4942753;29;20043;-63
2023/03/20 11:13:52;;;;;;;18.65;12.65;;;;;;;22.76;59.50;98151.56;4943524;29;20055;-61
2023/03/20 11:16:48;;;;;;;15.45;12.43;;;;;;;22.71;57.61;98148.91;4946642;28;20059;-61
2023/03/20 11:19:24;;;;;;;16.88;13.52;;;;;;;22.70;60.34;98138.41;4947439;29;20077;-62
2023/03/20 11:22:32;;;;;;;20.75;13.95;;;;;;;22.61;57.79;98140.06;4950466;28;20582;-60
2023/03/20 11:25:27;;;;;;;18.58;12.82;;;;;;;22.68;60.31;98143.22;4928985;28;20134;-62
2023/03/20 11:28:30;;;;;;;25.25;14.82;;;;;;;22.64;60.84;98140.31;4943774;28;20066;-62
2023/03/20 11:31:18;;;;;;;19.20;13.68;;;;;;;22.60;60.06;98141.16;4948606;28;20061;-62
2023/03/20 11:34:13;;;;;;;20.05;13.82;;;;;;;22.57;61.33;98134.41;4946908;29;20133;-61
2023/03/20 11:37:00;;;;;;;19.13;12.95;;;;;;;22.55;61.57;98133.09;4949072;28;20062;-60
2023/03/20 11:40:05;;;;;;;16.08;12.25;;;;;;;22.54;62.59;98126.88;4939003;29;20078;-61
2023/03/20 11:43:02;;;;;;;18.30;13.00;;;;;;;22.43;62.38;98124.56;4944074;28;20044;-61
2023/03/20 11:45:57;;;;;;;14.82;11.35;;;;;;;22.35;62.39;98120.56;4949291;28;20067;-59
2023/03/20 11:48:45;;;;;;;28.88;12.70;;;;;;;22.26;62.51;98122.28;4945979;29;20055;-61
2023/03/20 11:51:42;;;;;;;17.05;12.60;;;;;;;22.20;62.90;98129.59;4955213;28;20058;-63
2023/03/20 11:54:25;;;;;;;16.90;12.02;;;;;;;21.95;62.45;98129.78;4942056;28;20051;-65
2023/03/20 11:57:35;;;;;;;22.73;14.07;;;;;;;21.94;61.80;98131.69;4945389;29;20060;-62
2023/03/20 12:00:23;;;;;;;17.40;12.50;;;;;;;22.05;62.30;98134.28;4948699;29;20138;-61
2023/03/20 12:03:42;;;;;;;18.60;12.98;;;;;;;21.89;61.26;98134.38;4947989;28;20300;-61
2023/03/20 12:06:42;;;;;;;17.08;13.13;;;;;;;21.88;62.32;98134.66;4947649;29;20055;-61
2023/03/20 12:09:41;;;;;;;20.85;12.88;;;;;;;21.85;62.40;98140.59;4930827;29;20166;-59
2023/03/20 12:12:50;;;;;;;16.63;13.15;;;;;;;21.93;63.42;98148.13;4931333;28;20886;-61
2023/03/20 12:15:46;;;;;;;22.63;14.10;;;;;;;21.81;62.36;98148.44;4946734;29;20051;-61
2023/03/20 12:18:35;;;;;;;21.77;13.15;;;;;;;21.77;63.08;98154.69;4950650;28;20059;-60
2023/03/20 12:21:31;;;;;;;19.25;14.25;;;;;;;21.91;63.59;98155.66;4948334;29;20573;-60
2023/03/20 12:24:30;;;;;;;19.35;14.10;;;;;;;21.64;63.10;98160.69;4960254;28;20061;-61
2023/03/20 12:27:46;;;;;;;22.88;14.75;;;;;;;21.61;63.50;98163.91;4941122;29;20434;-61
2023/03/20 12:30:48;;;;;;;18.95;15.02;;;;;;;21.41;63.94;98160.22;4939481;29;20055;-61
2023/03/20 12:33:50;;;;;;;22.98;15.20;;;;;;;21.48;64.83;98168.00;4951388;28;20054;-61
2023/03/20 12:36:36;;;;;;;22.25;16.15;;;;;;;21.33;64.00;98165.38;4948462;28;20138;-61
2023/03/20 12:39:28;;;;;;;20.97;15.27;;;;;;;21.41;65.54;98171.00;4951289;28;20058;-62
2023/03/20 12:42:17;;;;;;;22.63;15.98;;;;;;;21.38;64.72;98166.16;4947952;28;20763;-59
2023/03/20 12:45:29;;;;;;;19.70;15.50;;;;;;;21.28;64.84;98166.22;4933521;29;20491;-59
2023/03/20 12:48:36;;;;;;;28.63;16.38;;;;;;;21.29;65.89;98165.09;4945003;28;20450;-60
2023/03/20 12:51:19;;;;;;;22.15;14.65;;;;;;;21.44;66.55;98175.84;4942592;29;20054;-60
2023/03/20 12:54:27;;;;;;;22.20;15.35;;;;;;;21.30;65.93;98171.31;4945067;28;20557;-60
2023/03/20 12:57:31;;;;;;;23.23;16.02;;;;;;;21.19;66.64;98172.44;4929840;29;20110;-59
2023/03/20 13:00:30;;;;;;;24.15;16.17;;;;;;;21.23;66.99;98177.00;4951055;28;20050;-60
2023/03/20 13:03:36;;;;;;;23.70;16.58;;;;;;;21.12;67.05;98185.31;4963096;28;20050;-59
2023/03/20 13:06:51;;;;;;;22.55;16.65;;;;;;;21.13;67.61;98187.78;4947258;28;20106;-61
2023/03/20 13:09:35;;;;;;;26.02;16.58;;;;;;;21.14;68.63;98192.09;4921818;29;20061;-60
2023/03/20 13:12:37;;;;;;;30.15;16.50;;;;;;;21.05;68.15;98196.38;4944248;28;20079;-61
2023/03/20 13:15:48;;;;;;;28.08;17.67;;;;;;;20.83;68.47;98202.06;4943395;29;20078;-60